Strona główna
METAR-TAF:

METAR-TAF

Lotnisko :

Stornoway, Szkocja

Szerokość geograficzna: 58-13N, Długość geograficzna: 006-19W, wysokość: 9 m

Aktualna obserwacja pogody

Raport powstał 36 minut temu, godzina 20:50 UTC
Wiatr 4 kt od południe, zmienny między południowy wschód i południowo-południowy zachód
Temperatura 10°C
Wilgotność 87%
Ciśnienie 1006 hPa
Widzialność 10 km lub więcej
słaby deszcz

METAR: EGPO 162050Z AUTO 18004KT 140V200 9999 -RA NCD 10/08 Q1006

czas: 22:26 (21:26 UTC)

Prognoza

Raport powstał 1 godzina i 29 minut temu, godzina 19:57 UTC
Prognoza ważna od 16 godzina 21 UTC do 17 godzina 06 UTC
Wiatr 9 kt od południowo-południowy wschód
Widzialność 10 km lub więcej
Rozproszone chmury na wysokości 2500 ft
Przejściowo
od 17 godzina 04 UTC do 17 godzina 06 UTC
Widzialność: 6000 m
Przerywane chmury na wysokości 1400 ft
deszcz

TAF: EGPO 161957Z 1621/1706 16009KT 9999 SCT025 TEMPO 1704/1706 6000 RA BKN014

Obserwacja i prognoza pogody dla ponad 4000 lotnisk (raport METAR i TAF).

Dostępne stacje oznaczono żółtymi i czerwonymi punktami na mapie.

Najedź kursorem aby zobaczyć nazwę stacji.

Kliknij aby zobaczyć obserwacje i prognozy pogody.

Aby zmienić mapę: kliknij na zielony przycisk z czarnym krzyżykiem, aby powiększyć; na zielony przycisk z myślnikiem, aby pomniejszyć; na zielone strzałki, aby przejść do map sąsiednich.


METAR-TAF: